sensor_id;sensor_type;location;lat;lon;timestamp;P1;durP1;ratioP1;P2;durP2;ratioP2
34783;SDS011;20998;51.388;7.032;2023-04-15T00:00:02;6.43;;;3.20;;
34783;SDS011;20998;51.388;7.032;2023-04-15T00:02:28;6.20;;;3.20;;
34783;SDS011;20998;51.388;7.032;2023-04-15T00:04:54;9.90;;;3.80;;
34783;SDS011;20998;51.388;7.032;2023-04-15T00:07:20;6.73;;;3.60;;
34783;SDS011;20998;51.388;7.032;2023-04-15T00:09:46;6.93;;;3.50;;
34783;SDS011;20998;51.388;7.032;2023-04-15T00:12:12;5.63;;;3.70;;
34783;SDS011;20998;51.388;7.032;2023-04-15T00:14:38;5.37;;;3.57;;
34783;SDS011;20998;51.388;7.032;2023-04-15T00:17:04;6.00;;;3.40;;
34783;SDS011;20998;51.388;7.032;2023-04-15T00:19:30;4.87;;;3.30;;
34783;SDS011;20998;51.388;7.032;2023-04-15T00:21:57;5.63;;;3.43;;
34783;SDS011;20998;51.388;7.032;2023-04-15T00:24:23;7.27;;;3.37;;
34783;SDS011;20998;51.388;7.032;2023-04-15T00:26:49;16.33;;;4.50;;
34783;SDS011;20998;51.388;7.032;2023-04-15T00:29:15;5.00;;;2.67;;
34783;SDS011;20998;51.388;7.032;2023-04-15T00:31:41;7.17;;;4.17;;
34783;SDS011;20998;51.388;7.032;2023-04-15T00:34:07;7.17;;;3.00;;
34783;SDS011;20998;51.388;7.032;2023-04-15T00:36:33;5.90;;;3.27;;
34783;SDS011;20998;51.388;7.032;2023-04-15T00:39:00;9.00;;;3.77;;
34783;SDS011;20998;51.388;7.032;2023-04-15T00:41:27;5.97;;;3.03;;
34783;SDS011;20998;51.388;7.032;2023-04-15T00:43:53;13.00;;;3.50;;
34783;SDS011;20998;51.388;7.032;2023-04-15T00:46:19;6.33;;;3.20;;
34783;SDS011;20998;51.388;7.032;2023-04-15T00:48:45;5.00;;;3.47;;
34783;SDS011;20998;51.388;7.032;2023-04-15T00:51:12;8.87;;;3.40;;
34783;SDS011;20998;51.388;7.032;2023-04-15T00:53:38;23.70;;;3.73;;
34783;SDS011;20998;51.388;7.032;2023-04-15T00:56:05;11.60;;;4.00;;
34783;SDS011;20998;51.388;7.032;2023-04-15T00:58:31;5.90;;;3.63;;
34783;SDS011;20998;51.388;7.032;2023-04-15T01:00:57;7.80;;;4.13;;
34783;SDS011;20998;51.388;7.032;2023-04-15T01:03:23;5.87;;;3.67;;
34783;SDS011;20998;51.388;7.032;2023-04-15T01:05:49;8.60;;;3.77;;
34783;SDS011;20998;51.388;7.032;2023-04-15T01:08:22;6.93;;;3.67;;
34783;SDS011;20998;51.388;7.032;2023-04-15T01:10:48;6.10;;;3.70;;
34783;SDS011;20998;51.388;7.032;2023-04-15T01:13:14;8.23;;;3.90;;
34783;SDS011;20998;51.388;7.032;2023-04-15T01:15:40;8.00;;;3.97;;
34783;SDS011;20998;51.388;7.032;2023-04-15T01:18:07;8.63;;;4.10;;
34783;SDS011;20998;51.388;7.032;2023-04-15T01:20:33;6.73;;;3.87;;
34783;SDS011;20998;51.388;7.032;2023-04-15T01:23:00;9.27;;;4.40;;
34783;SDS011;20998;51.388;7.032;2023-04-15T01:25:29;7.70;;;3.40;;
34783;SDS011;20998;51.388;7.032;2023-04-15T01:27:57;15.33;;;4.20;;
34783;SDS011;20998;51.388;7.032;2023-04-15T01:30:23;6.20;;;3.90;;
34783;SDS011;20998;51.388;7.032;2023-04-15T01:32:50;11.77;;;3.63;;
34783;SDS011;20998;51.388;7.032;2023-04-15T01:35:17;8.97;;;3.90;;
34783;SDS011;20998;51.388;7.032;2023-04-15T01:37:43;7.10;;;3.97;;
34783;SDS011;20998;51.388;7.032;2023-04-15T01:40:09;5.87;;;3.27;;
34783;SDS011;20998;51.388;7.032;2023-04-15T01:42:35;6.80;;;3.83;;
34783;SDS011;20998;51.388;7.032;2023-04-15T01:45:02;10.10;;;3.97;;
34783;SDS011;20998;51.388;7.032;2023-04-15T01:47:28;9.77;;;3.40;;
34783;SDS011;20998;51.388;7.032;2023-04-15T01:49:54;9.10;;;4.33;;
34783;SDS011;20998;51.388;7.032;2023-04-15T01:52:20;5.93;;;3.80;;
34783;SDS011;20998;51.388;7.032;2023-04-15T01:54:46;4.57;;;3.43;;
34783;SDS011;20998;51.388;7.032;2023-04-15T01:57:12;6.50;;;4.13;;
34783;SDS011;20998;51.388;7.032;2023-04-15T01:59:38;8.47;;;4.17;;
34783;SDS011;20998;51.388;7.032;2023-04-15T02:02:05;4.70;;;3.60;;
34783;SDS011;20998;51.388;7.032;2023-04-15T02:04:31;10.80;;;4.57;;
34783;SDS011;20998;51.388;7.032;2023-04-15T02:06:58;8.70;;;3.93;;
34783;SDS011;20998;51.388;7.032;2023-04-15T02:09:24;9.20;;;3.40;;
34783;SDS011;20998;51.388;7.032;2023-04-15T02:11:50;10.13;;;4.20;;
34783;SDS011;20998;51.388;7.032;2023-04-15T02:14:18;9.93;;;4.07;;
34783;SDS011;20998;51.388;7.032;2023-04-15T02:16:44;7.60;;;4.23;;
34783;SDS011;20998;51.388;7.032;2023-04-15T02:19:10;6.67;;;4.13;;
34783;SDS011;20998;51.388;7.032;2023-04-15T02:21:36;6.20;;;3.80;;
34783;SDS011;20998;51.388;7.032;2023-04-15T02:24:03;6.67;;;4.17;;
34783;SDS011;20998;51.388;7.032;2023-04-15T02:26:29;8.70;;;5.10;;
34783;SDS011;20998;51.388;7.032;2023-04-15T02:28:59;12.87;;;5.10;;
34783;SDS011;20998;51.388;7.032;2023-04-15T02:31:25;9.80;;;4.20;;
34783;SDS011;20998;51.388;7.032;2023-04-15T02:33:51;12.00;;;4.23;;
34783;SDS011;20998;51.388;7.032;2023-04-15T02:36:17;8.93;;;5.33;;
34783;SDS011;20998;51.388;7.032;2023-04-15T02:38:43;7.30;;;4.20;;
34783;SDS011;20998;51.388;7.032;2023-04-15T02:41:09;10.90;;;4.67;;
34783;SDS011;20998;51.388;7.032;2023-04-15T02:43:35;11.40;;;4.43;;
34783;SDS011;20998;51.388;7.032;2023-04-15T02:46:02;16.93;;;5.37;;
34783;SDS011;20998;51.388;7.032;2023-04-15T02:48:28;8.60;;;4.23;;
34783;SDS011;20998;51.388;7.032;2023-04-15T02:51:09;8.33;;;4.47;;
34783;SDS011;20998;51.388;7.032;2023-04-15T02:53:43;9.17;;;4.57;;
34783;SDS011;20998;51.388;7.032;2023-04-15T02:56:10;8.00;;;4.67;;
34783;SDS011;20998;51.388;7.032;2023-04-15T02:58:36;5.40;;;3.77;;
34783;SDS011;20998;51.388;7.032;2023-04-15T03:01:02;9.43;;;4.17;;
34783;SDS011;20998;51.388;7.032;2023-04-15T03:03:28;6.80;;;4.50;;
34783;SDS011;20998;51.388;7.032;2023-04-15T03:05:55;11.83;;;5.07;;
34783;SDS011;20998;51.388;7.032;2023-04-15T03:08:21;14.43;;;5.50;;
34783;SDS011;20998;51.388;7.032;2023-04-15T03:10:47;11.50;;;5.57;;
34783;SDS011;20998;51.388;7.032;2023-04-15T03:13:13;7.93;;;5.20;;
34783;SDS011;20998;51.388;7.032;2023-04-15T03:15:39;11.50;;;5.60;;
34783;SDS011;20998;51.388;7.032;2023-04-15T03:18:05;8.73;;;5.17;;
34783;SDS011;20998;51.388;7.032;2023-04-15T03:20:31;12.17;;;6.27;;
34783;SDS011;20998;51.388;7.032;2023-04-15T03:22:57;13.50;;;6.23;;
34783;SDS011;20998;51.388;7.032;2023-04-15T03:25:23;6.10;;;4.50;;
34783;SDS011;20998;51.388;7.032;2023-04-15T03:27:49;13.60;;;5.20;;
34783;SDS011;20998;51.388;7.032;2023-04-15T03:30:16;15.13;;;5.40;;
34783;SDS011;20998;51.388;7.032;2023-04-15T03:32:42;9.07;;;5.10;;
34783;SDS011;20998;51.388;7.032;2023-04-15T03:35:08;8.37;;;4.77;;
34783;SDS011;20998;51.388;7.032;2023-04-15T03:37:34;11.93;;;5.70;;
34783;SDS011;20998;51.388;7.032;2023-04-15T03:40:00;11.30;;;5.43;;
34783;SDS011;20998;51.388;7.032;2023-04-15T03:42:25;10.20;;;5.23;;
34783;SDS011;20998;51.388;7.032;2023-04-15T03:44:51;11.60;;;5.10;;
34783;SDS011;20998;51.388;7.032;2023-04-15T03:47:17;11.77;;;5.23;;
34783;SDS011;20998;51.388;7.032;2023-04-15T03:49:43;17.27;;;4.87;;
34783;SDS011;20998;51.388;7.032;2023-04-15T03:52:10;15.57;;;5.33;;
34783;SDS011;20998;51.388;7.032;2023-04-15T03:54:36;9.07;;;4.30;;
34783;SDS011;20998;51.388;7.032;2023-04-15T03:57:02;7.80;;;4.23;;
34783;SDS011;20998;51.388;7.032;2023-04-15T03:59:28;10.77;;;4.77;;
34783;SDS011;20998;51.388;7.032;2023-04-15T04:01:54;18.33;;;5.30;;
34783;SDS011;20998;51.388;7.032;2023-04-15T04:04:20;8.53;;;5.17;;
34783;SDS011;20998;51.388;7.032;2023-04-15T04:06:46;10.73;;;5.10;;
34783;SDS011;20998;51.388;7.032;2023-04-15T04:09:12;13.67;;;5.87;;
34783;SDS011;20998;51.388;7.032;2023-04-15T04:11:38;9.73;;;5.60;;
34783;SDS011;20998;51.388;7.032;2023-04-15T04:14:04;15.07;;;5.83;;
34783;SDS011;20998;51.388;7.032;2023-04-15T04:16:30;16.37;;;6.43;;
34783;SDS011;20998;51.388;7.032;2023-04-15T04:18:56;8.80;;;4.70;;
34783;SDS011;20998;51.388;7.032;2023-04-15T04:21:22;9.17;;;5.13;;
34783;SDS011;20998;51.388;7.032;2023-04-15T04:23:48;13.57;;;6.33;;
34783;SDS011;20998;51.388;7.032;2023-04-15T04:26:14;9.97;;;5.53;;
34783;SDS011;20998;51.388;7.032;2023-04-15T04:28:40;13.50;;;6.57;;
34783;SDS011;20998;51.388;7.032;2023-04-15T04:31:06;13.53;;;6.00;;
34783;SDS011;20998;51.388;7.032;2023-04-15T04:33:32;9.93;;;6.10;;
34783;SDS011;20998;51.388;7.032;2023-04-15T04:35:58;12.20;;;6.00;;
34783;SDS011;20998;51.388;7.032;2023-04-15T04:38:24;8.47;;;5.33;;
34783;SDS011;20998;51.388;7.032;2023-04-15T04:40:50;9.57;;;5.83;;
34783;SDS011;20998;51.388;7.032;2023-04-15T04:43:16;12.03;;;6.27;;
34783;SDS011;20998;51.388;7.032;2023-04-15T04:45:42;9.80;;;6.07;;
34783;SDS011;20998;51.388;7.032;2023-04-15T04:48:08;10.00;;;5.67;;
34783;SDS011;20998;51.388;7.032;2023-04-15T04:50:34;10.10;;;5.47;;
34783;SDS011;20998;51.388;7.032;2023-04-15T04:53:01;9.23;;;5.60;;
34783;SDS011;20998;51.388;7.032;2023-04-15T04:55:27;8.97;;;5.60;;
34783;SDS011;20998;51.388;7.032;2023-04-15T04:57:53;9.40;;;5.70;;
34783;SDS011;20998;51.388;7.032;2023-04-15T05:00:19;13.73;;;5.63;;
34783;SDS011;20998;51.388;7.032;2023-04-15T05:02:45;12.27;;;5.57;;
34783;SDS011;20998;51.388;7.032;2023-04-15T05:05:11;12.50;;;5.73;;
34783;SDS011;20998;51.388;7.032;2023-04-15T05:07:37;8.47;;;5.47;;
34783;SDS011;20998;51.388;7.032;2023-04-15T05:10:03;9.93;;;5.93;;
34783;SDS011;20998;51.388;7.032;2023-04-15T05:12:30;11.13;;;5.27;;
34783;SDS011;20998;51.388;7.032;2023-04-15T05:14:56;17.77;;;5.70;;
34783;SDS011;20998;51.388;7.032;2023-04-15T05:17:22;9.23;;;5.40;;
34783;SDS011;20998;51.388;7.032;2023-04-15T05:19:48;11.23;;;5.90;;
34783;SDS011;20998;51.388;7.032;2023-04-15T05:22:14;10.63;;;6.53;;
34783;SDS011;20998;51.388;7.032;2023-04-15T05:24:40;9.73;;;6.13;;
34783;SDS011;20998;51.388;7.032;2023-04-15T05:27:06;14.67;;;6.50;;
34783;SDS011;20998;51.388;7.032;2023-04-15T05:29:32;11.80;;;6.23;;
34783;SDS011;20998;51.388;7.032;2023-04-15T05:31:58;13.67;;;6.87;;
34783;SDS011;20998;51.388;7.032;2023-04-15T05:34:25;11.57;;;6.77;;
34783;SDS011;20998;51.388;7.032;2023-04-15T05:36:51;14.87;;;7.90;;
34783;SDS011;20998;51.388;7.032;2023-04-15T05:39:17;12.83;;;6.53;;
34783;SDS011;20998;51.388;7.032;2023-04-15T05:41:43;10.93;;;6.47;;
34783;SDS011;20998;51.388;7.032;2023-04-15T05:44:09;13.10;;;6.63;;
34783;SDS011;20998;51.388;7.032;2023-04-15T05:46:35;14.03;;;7.10;;
34783;SDS011;20998;51.388;7.032;2023-04-15T05:49:01;13.97;;;6.97;;
34783;SDS011;20998;51.388;7.032;2023-04-15T05:51:27;13.77;;;6.70;;
34783;SDS011;20998;51.388;7.032;2023-04-15T05:53:53;14.70;;;7.90;;
34783;SDS011;20998;51.388;7.032;2023-04-15T05:56:19;13.10;;;8.10;;
34783;SDS011;20998;51.388;7.032;2023-04-15T05:58:46;15.37;;;7.70;;
34783;SDS011;20998;51.388;7.032;2023-04-15T06:01:12;12.53;;;6.87;;
34783;SDS011;20998;51.388;7.032;2023-04-15T06:03:38;11.57;;;7.53;;
34783;SDS011;20998;51.388;7.032;2023-04-15T06:06:04;13.67;;;7.23;;
34783;SDS011;20998;51.388;7.032;2023-04-15T06:08:30;12.27;;;6.57;;
34783;SDS011;20998;51.388;7.032;2023-04-15T06:10:57;12.47;;;8.10;;
34783;SDS011;20998;51.388;7.032;2023-04-15T06:13:23;17.13;;;7.83;;
34783;SDS011;20998;51.388;7.032;2023-04-15T06:15:49;17.57;;;7.07;;
34783;SDS011;20998;51.388;7.032;2023-04-15T06:18:15;13.13;;;7.17;;
34783;SDS011;20998;51.388;7.032;2023-04-15T06:20:41;13.43;;;6.87;;
34783;SDS011;20998;51.388;7.032;2023-04-15T06:23:07;13.87;;;7.67;;
34783;SDS011;20998;51.388;7.032;2023-04-15T06:25:32;13.07;;;7.07;;
34783;SDS011;20998;51.388;7.032;2023-04-15T06:27:58;17.47;;;7.07;;
34783;SDS011;20998;51.388;7.032;2023-04-15T06:30:25;14.77;;;7.30;;
34783;SDS011;20998;51.388;7.032;2023-04-15T06:32:51;11.90;;;7.03;;
34783;SDS011;20998;51.388;7.032;2023-04-15T06:35:17;12.23;;;6.97;;
34783;SDS011;20998;51.388;7.032;2023-04-15T06:37:43;11.03;;;7.10;;
34783;SDS011;20998;51.388;7.032;2023-04-15T06:40:09;8.70;;;5.60;;
34783;SDS011;20998;51.388;7.032;2023-04-15T06:42:35;11.37;;;7.43;;
34783;SDS011;20998;51.388;7.032;2023-04-15T06:45:02;20.43;;;6.80;;
34783;SDS011;20998;51.388;7.032;2023-04-15T06:47:28;11.10;;;6.30;;
34783;SDS011;20998;51.388;7.032;2023-04-15T06:49:54;10.27;;;6.57;;
34783;SDS011;20998;51.388;7.032;2023-04-15T06:52:20;14.43;;;7.60;;
34783;SDS011;20998;51.388;7.032;2023-04-15T06:54:46;11.13;;;6.77;;
34783;SDS011;20998;51.388;7.032;2023-04-15T06:57:12;12.87;;;7.47;;
34783;SDS011;20998;51.388;7.032;2023-04-15T06:59:38;12.80;;;6.17;;
34783;SDS011;20998;51.388;7.032;2023-04-15T07:02:04;11.50;;;7.20;;
34783;SDS011;20998;51.388;7.032;2023-04-15T07:04:30;10.83;;;6.50;;
34783;SDS011;20998;51.388;7.032;2023-04-15T07:06:56;13.70;;;8.50;;
34783;SDS011;20998;51.388;7.032;2023-04-15T07:09:22;15.20;;;7.90;;
34783;SDS011;20998;51.388;7.032;2023-04-15T07:11:49;15.70;;;8.30;;
34783;SDS011;20998;51.388;7.032;2023-04-15T07:14:15;15.57;;;7.67;;
34783;SDS011;20998;51.388;7.032;2023-04-15T07:16:41;14.83;;;7.60;;
34783;SDS011;20998;51.388;7.032;2023-04-15T07:19:07;15.73;;;8.00;;
34783;SDS011;20998;51.388;7.032;2023-04-15T07:21:33;12.33;;;7.47;;
34783;SDS011;20998;51.388;7.032;2023-04-15T07:23:59;13.70;;;6.87;;
34783;SDS011;20998;51.388;7.032;2023-04-15T07:26:25;12.87;;;6.93;;
34783;SDS011;20998;51.388;7.032;2023-04-15T07:28:51;12.27;;;7.27;;
34783;SDS011;20998;51.388;7.032;2023-04-15T07:31:17;10.33;;;6.60;;
34783;SDS011;20998;51.388;7.032;2023-04-15T07:33:43;12.87;;;6.10;;
34783;SDS011;20998;51.388;7.032;2023-04-15T07:36:10;12.27;;;7.20;;
34783;SDS011;20998;51.388;7.032;2023-04-15T07:38:36;10.00;;;6.77;;
34783;SDS011;20998;51.388;7.032;2023-04-15T07:41:02;13.93;;;7.30;;
34783;SDS011;20998;51.388;7.032;2023-04-15T07:43:28;13.60;;;8.27;;
34783;SDS011;20998;51.388;7.032;2023-04-15T07:45:54;13.20;;;6.97;;
34783;SDS011;20998;51.388;7.032;2023-04-15T07:48:20;11.53;;;6.97;;
34783;SDS011;20998;51.388;7.032;2023-04-15T07:50:47;9.83;;;6.57;;
34783;SDS011;20998;51.388;7.032;2023-04-15T07:53:13;12.73;;;7.30;;
34783;SDS011;20998;51.388;7.032;2023-04-15T07:55:39;12.93;;;6.37;;
34783;SDS011;20998;51.388;7.032;2023-04-15T07:58:05;13.83;;;6.90;;
34783;SDS011;20998;51.388;7.032;2023-04-15T08:00:31;15.87;;;7.10;;
34783;SDS011;20998;51.388;7.032;2023-04-15T08:02:57;13.90;;;7.20;;
34783;SDS011;20998;51.388;7.032;2023-04-15T08:05:23;10.97;;;5.97;;
34783;SDS011;20998;51.388;7.032;2023-04-15T08:07:50;13.97;;;6.60;;
34783;SDS011;20998;51.388;7.032;2023-04-15T08:10:16;9.60;;;6.10;;
34783;SDS011;20998;51.388;7.032;2023-04-15T08:12:42;10.13;;;6.30;;
34783;SDS011;20998;51.388;7.032;2023-04-15T08:15:08;9.97;;;5.50;;
34783;SDS011;20998;51.388;7.032;2023-04-15T08:17:34;9.17;;;5.23;;
34783;SDS011;20998;51.388;7.032;2023-04-15T08:20:00;6.37;;;4.37;;
34783;SDS011;20998;51.388;7.032;2023-04-15T08:22:26;8.40;;;4.97;;
34783;SDS011;20998;51.388;7.032;2023-04-15T08:24:52;9.40;;;4.80;;
34783;SDS011;20998;51.388;7.032;2023-04-15T08:27:18;6.63;;;3.90;;
34783;SDS011;20998;51.388;7.032;2023-04-15T08:29:44;8.20;;;4.87;;
34783;SDS011;20998;51.388;7.032;2023-04-15T08:32:11;6.40;;;4.33;;
34783;SDS011;20998;51.388;7.032;2023-04-15T08:34:37;9.13;;;3.90;;
34783;SDS011;20998;51.388;7.032;2023-04-15T08:37:03;6.77;;;3.73;;
34783;SDS011;20998;51.388;7.032;2023-04-15T08:39:29;7.70;;;4.03;;
34783;SDS011;20998;51.388;7.032;2023-04-15T08:44:32;5.20;;;3.53;;
34783;SDS011;20998;51.388;7.032;2023-04-15T08:47:01;8.90;;;5.30;;
34783;SDS011;20998;51.388;7.032;2023-04-15T08:49:31;7.73;;;3.80;;
34783;SDS011;20998;51.388;7.032;2023-04-15T08:51:57;7.57;;;4.40;;
34783;SDS011;20998;51.388;7.032;2023-04-15T08:54:23;6.67;;;4.00;;
34783;SDS011;20998;51.388;7.032;2023-04-15T08:56:50;6.37;;;3.77;;
34783;SDS011;20998;51.388;7.032;2023-04-15T08:59:17;6.77;;;3.90;;
34783;SDS011;20998;51.388;7.032;2023-04-15T09:01:45;6.57;;;4.37;;
34783;SDS011;20998;51.388;7.032;2023-04-15T09:04:11;6.77;;;4.03;;
34783;SDS011;20998;51.388;7.032;2023-04-15T09:06:38;5.37;;;3.73;;
34783;SDS011;20998;51.388;7.032;2023-04-15T09:09:04;4.80;;;2.90;;
34783;SDS011;20998;51.388;7.032;2023-04-15T09:11:30;4.57;;;2.63;;
34783;SDS011;20998;51.388;7.032;2023-04-15T09:13:56;4.90;;;2.70;;
34783;SDS011;20998;51.388;7.032;2023-04-15T09:16:22;5.87;;;2.97;;
34783;SDS011;20998;51.388;7.032;2023-04-15T09:18:48;3.63;;;2.43;;
34783;SDS011;20998;51.388;7.032;2023-04-15T09:21:15;6.50;;;2.87;;
34783;SDS011;20998;51.388;7.032;2023-04-15T09:23:57;5.97;;;3.27;;
34783;SDS011;20998;51.388;7.032;2023-04-15T09:26:34;4.57;;;2.50;;
34783;SDS011;20998;51.388;7.032;2023-04-15T09:29:02;4.80;;;3.23;;
34783;SDS011;20998;51.388;7.032;2023-04-15T09:31:33;10.77;;;2.77;;
34783;SDS011;20998;51.388;7.032;2023-04-15T09:33:59;5.70;;;3.33;;
34783;SDS011;20998;51.388;7.032;2023-04-15T09:36:25;4.97;;;3.07;;
34783;SDS011;20998;51.388;7.032;2023-04-15T09:38:57;5.37;;;3.30;;
34783;SDS011;20998;51.388;7.032;2023-04-15T09:41:26;4.93;;;3.10;;
34783;SDS011;20998;51.388;7.032;2023-04-15T09:43:52;6.93;;;3.10;;
34783;SDS011;20998;51.388;7.032;2023-04-15T09:46:18;5.57;;;3.13;;
34783;SDS011;20998;51.388;7.032;2023-04-15T09:48:44;5.57;;;3.60;;
34783;SDS011;20998;51.388;7.032;2023-04-15T09:51:10;7.27;;;3.30;;
34783;SDS011;20998;51.388;7.032;2023-04-15T09:53:36;5.00;;;3.40;;
34783;SDS011;20998;51.388;7.032;2023-04-15T09:56:02;8.17;;;3.37;;
34783;SDS011;20998;51.388;7.032;2023-04-15T09:58:32;7.93;;;4.00;;
34783;SDS011;20998;51.388;7.032;2023-04-15T10:00:59;5.40;;;3.10;;
34783;SDS011;20998;51.388;7.032;2023-04-15T10:03:29;5.33;;;3.40;;
34783;SDS011;20998;51.388;7.032;2023-04-15T10:05:58;5.30;;;3.43;;
34783;SDS011;20998;51.388;7.032;2023-04-15T10:08:26;9.67;;;3.13;;
34783;SDS011;20998;51.388;7.032;2023-04-15T10:10:53;9.90;;;2.87;;
34783;SDS011;20998;51.388;7.032;2023-04-15T10:13:21;3.80;;;2.77;;
34783;SDS011;20998;51.388;7.032;2023-04-15T10:18:22;4.07;;;2.60;;
34783;SDS011;20998;51.388;7.032;2023-04-15T10:20:50;4.40;;;2.50;;
34783;SDS011;20998;51.388;7.032;2023-04-15T10:23:16;5.47;;;3.03;;
34783;SDS011;20998;51.388;7.032;2023-04-15T10:25:43;4.83;;;2.70;;
34783;SDS011;20998;51.388;7.032;2023-04-15T10:28:09;4.10;;;2.70;;
34783;SDS011;20998;51.388;7.032;2023-04-15T10:30:36;5.40;;;2.60;;
34783;SDS011;20998;51.388;7.032;2023-04-15T10:33:02;2.97;;;2.20;;
34783;SDS011;20998;51.388;7.032;2023-04-15T10:35:30;4.57;;;2.87;;
34783;SDS011;20998;51.388;7.032;2023-04-15T10:37:57;3.23;;;2.20;;
34783;SDS011;20998;51.388;7.032;2023-04-15T10:40:27;2.90;;;2.10;;
34783;SDS011;20998;51.388;7.032;2023-04-15T10:42:55;3.47;;;2.70;;
34783;SDS011;20998;51.388;7.032;2023-04-15T10:45:21;3.83;;;2.83;;
34783;SDS011;20998;51.388;7.032;2023-04-15T10:47:53;4.43;;;2.60;;
34783;SDS011;20998;51.388;7.032;2023-04-15T10:50:19;4.10;;;3.30;;
34783;SDS011;20998;51.388;7.032;2023-04-15T10:52:48;6.80;;;3.03;;
34783;SDS011;20998;51.388;7.032;2023-04-15T10:55:20;6.10;;;4.20;;
34783;SDS011;20998;51.388;7.032;2023-04-15T10:57:50;11.07;;;3.90;;
34783;SDS011;20998;51.388;7.032;2023-04-15T11:00:25;5.30;;;3.60;;
34783;SDS011;20998;51.388;7.032;2023-04-15T11:02:55;3.77;;;2.73;;
34783;SDS011;20998;51.388;7.032;2023-04-15T11:05:48;5.50;;;3.40;;
34783;SDS011;20998;51.388;7.032;2023-04-15T11:08:13;4.53;;;2.73;;
34783;SDS011;20998;51.388;7.032;2023-04-15T11:18:11;4.70;;;3.10;;
34783;SDS011;20998;51.388;7.032;2023-04-15T11:20:52;5.87;;;4.17;;
34783;SDS011;20998;51.388;7.032;2023-04-15T11:23:30;4.83;;;3.80;;
34783;SDS011;20998;51.388;7.032;2023-04-15T11:26:01;7.20;;;4.50;;
34783;SDS011;20998;51.388;7.032;2023-04-15T11:28:31;6.37;;;4.00;;
34783;SDS011;20998;51.388;7.032;2023-04-15T11:30:57;5.77;;;4.20;;
34783;SDS011;20998;51.388;7.032;2023-04-15T11:33:23;5.33;;;3.50;;
34783;SDS011;20998;51.388;7.032;2023-04-15T11:35:51;5.00;;;3.93;;
34783;SDS011;20998;51.388;7.032;2023-04-15T11:38:18;5.33;;;3.60;;
34783;SDS011;20998;51.388;7.032;2023-04-15T11:40:44;6.73;;;3.70;;
34783;SDS011;20998;51.388;7.032;2023-04-15T11:43:11;6.13;;;3.30;;
34783;SDS011;20998;51.388;7.032;2023-04-15T11:45:47;3.63;;;2.80;;
34783;SDS011;20998;51.388;7.032;2023-04-15T11:48:17;4.50;;;2.83;;
34783;SDS011;20998;51.388;7.032;2023-04-15T11:50:44;4.07;;;2.80;;
34783;SDS011;20998;51.388;7.032;2023-04-15T11:53:11;4.27;;;2.77;;
34783;SDS011;20998;51.388;7.032;2023-04-15T11:55:55;4.27;;;2.80;;
34783;SDS011;20998;51.388;7.032;2023-04-15T11:58:22;7.00;;;2.83;;
34783;SDS011;20998;51.388;7.032;2023-04-15T12:00:53;4.23;;;2.97;;
34783;SDS011;20998;51.388;7.032;2023-04-15T12:06:02;4.87;;;3.30;;
34783;SDS011;20998;51.388;7.032;2023-04-15T12:09:12;4.83;;;3.00;;
34783;SDS011;20998;51.388;7.032;2023-04-15T12:13:52;4.80;;;3.10;;
34783;SDS011;20998;51.388;7.032;2023-04-15T12:16:32;5.23;;;3.10;;
34783;SDS011;20998;51.388;7.032;2023-04-15T12:18:59;4.43;;;2.60;;
34783;SDS011;20998;51.388;7.032;2023-04-15T12:21:32;4.13;;;2.50;;
34783;SDS011;20998;51.388;7.032;2023-04-15T12:24:00;3.23;;;2.30;;
34783;SDS011;20998;51.388;7.032;2023-04-15T12:26:44;3.17;;;2.37;;
34783;SDS011;20998;51.388;7.032;2023-04-15T12:29:12;4.90;;;2.63;;
34783;SDS011;20998;51.388;7.032;2023-04-15T12:31:46;3.63;;;2.57;;
34783;SDS011;20998;51.388;7.032;2023-04-15T12:34:25;4.60;;;2.50;;
34783;SDS011;20998;51.388;7.032;2023-04-15T12:36:55;7.73;;;3.77;;
34783;SDS011;20998;51.388;7.032;2023-04-15T12:39:22;4.03;;;2.53;;
34783;SDS011;20998;51.388;7.032;2023-04-15T12:41:52;6.80;;;3.27;;
34783;SDS011;20998;51.388;7.032;2023-04-15T12:44:18;4.80;;;2.87;;
34783;SDS011;20998;51.388;7.032;2023-04-15T12:46:45;3.27;;;2.40;;
34783;SDS011;20998;51.388;7.032;2023-04-15T12:49:11;4.07;;;2.53;;
34783;SDS011;20998;51.388;7.032;2023-04-15T12:51:38;4.37;;;2.70;;
34783;SDS011;20998;51.388;7.032;2023-04-15T12:54:04;3.77;;;2.53;;
34783;SDS011;20998;51.388;7.032;2023-04-15T12:56:30;4.57;;;2.90;;
34783;SDS011;20998;51.388;7.032;2023-04-15T12:58:56;6.37;;;3.00;;
34783;SDS011;20998;51.388;7.032;2023-04-15T13:01:22;3.67;;;2.50;;
34783;SDS011;20998;51.388;7.032;2023-04-15T13:03:48;3.53;;;2.50;;
34783;SDS011;20998;51.388;7.032;2023-04-15T13:06:15;4.13;;;2.53;;
34783;SDS011;20998;51.388;7.032;2023-04-15T13:08:41;3.70;;;2.43;;
34783;SDS011;20998;51.388;7.032;2023-04-15T13:11:07;3.13;;;2.40;;
34783;SDS011;20998;51.388;7.032;2023-04-15T13:13:33;4.23;;;2.50;;
34783;SDS011;20998;51.388;7.032;2023-04-15T13:15:59;3.90;;;2.30;;
34783;SDS011;20998;51.388;7.032;2023-04-15T13:18:26;5.17;;;2.97;;
34783;SDS011;20998;51.388;7.032;2023-04-15T13:20:52;4.63;;;2.90;;
34783;SDS011;20998;51.388;7.032;2023-04-15T13:23:18;4.67;;;3.50;;
34783;SDS011;20998;51.388;7.032;2023-04-15T13:25:44;4.20;;;3.10;;
34783;SDS011;20998;51.388;7.032;2023-04-15T13:28:10;4.63;;;2.97;;
34783;SDS011;20998;51.388;7.032;2023-04-15T13:30:37;6.63;;;3.13;;
34783;SDS011;20998;51.388;7.032;2023-04-15T13:33:03;6.50;;;2.93;;
34783;SDS011;20998;51.388;7.032;2023-04-15T13:35:30;5.70;;;2.67;;
34783;SDS011;20998;51.388;7.032;2023-04-15T13:37:56;4.27;;;2.40;;
34783;SDS011;20998;51.388;7.032;2023-04-15T13:40:22;9.43;;;3.30;;
34783;SDS011;20998;51.388;7.032;2023-04-15T13:42:48;3.77;;;2.87;;
34783;SDS011;20998;51.388;7.032;2023-04-15T13:45:14;5.37;;;3.03;;
34783;SDS011;20998;51.388;7.032;2023-04-15T13:47:40;5.60;;;2.73;;
34783;SDS011;20998;51.388;7.032;2023-04-15T13:50:06;3.23;;;2.33;;
34783;SDS011;20998;51.388;7.032;2023-04-15T13:52:32;5.00;;;2.80;;
34783;SDS011;20998;51.388;7.032;2023-04-15T13:54:58;3.57;;;2.60;;
34783;SDS011;20998;51.388;7.032;2023-04-15T13:57:25;5.03;;;3.00;;
34783;SDS011;20998;51.388;7.032;2023-04-15T13:59:51;5.77;;;3.00;;
34783;SDS011;20998;51.388;7.032;2023-04-15T14:02:17;3.27;;;2.63;;
34783;SDS011;20998;51.388;7.032;2023-04-15T14:04:43;5.27;;;2.60;;
34783;SDS011;20998;51.388;7.032;2023-04-15T14:07:09;5.50;;;2.83;;
34783;SDS011;20998;51.388;7.032;2023-04-15T14:09:35;3.67;;;2.67;;
34783;SDS011;20998;51.388;7.032;2023-04-15T14:12:00;4.37;;;2.77;;
34783;SDS011;20998;51.388;7.032;2023-04-15T14:14:26;5.90;;;2.87;;
34783;SDS011;20998;51.388;7.032;2023-04-15T14:16:53;5.37;;;3.13;;
34783;SDS011;20998;51.388;7.032;2023-04-15T14:19:20;4.73;;;2.73;;
34783;SDS011;20998;51.388;7.032;2023-04-15T14:21:46;4.50;;;2.47;;
34783;SDS011;20998;51.388;7.032;2023-04-15T14:24:12;4.83;;;3.23;;
34783;SDS011;20998;51.388;7.032;2023-04-15T14:26:38;5.00;;;2.43;;
34783;SDS011;20998;51.388;7.032;2023-04-15T14:29:04;6.90;;;2.87;;
34783;SDS011;20998;51.388;7.032;2023-04-15T14:31:30;5.67;;;3.27;;
34783;SDS011;20998;51.388;7.032;2023-04-15T14:33:56;2.60;;;2.03;;
34783;SDS011;20998;51.388;7.032;2023-04-15T14:36:22;4.40;;;2.97;;
34783;SDS011;20998;51.388;7.032;2023-04-15T14:38:48;6.27;;;3.00;;
34783;SDS011;20998;51.388;7.032;2023-04-15T14:41:14;2.53;;;1.97;;
34783;SDS011;20998;51.388;7.032;2023-04-15T14:43:41;4.50;;;2.90;;
34783;SDS011;20998;51.388;7.032;2023-04-15T14:46:07;4.03;;;2.37;;
34783;SDS011;20998;51.388;7.032;2023-04-15T14:48:33;5.97;;;2.47;;
34783;SDS011;20998;51.388;7.032;2023-04-15T14:50:59;3.60;;;2.30;;
34783;SDS011;20998;51.388;7.032;2023-04-15T14:53:25;3.90;;;2.23;;
34783;SDS011;20998;51.388;7.032;2023-04-15T14:55:51;5.23;;;2.57;;
34783;SDS011;20998;51.388;7.032;2023-04-15T14:58:17;3.30;;;2.33;;